Time;durP1;ratioP1;P1;durP2;ratioP2;P2;SDS_P1;SDS_P2;PMS_P1;PMS_P2;Temp;Humidity;BMP_temperature;BMP_pressure;BME280_temperature;BME280_humidity;BME280_pressure;Samples;Min_cycle;Max_cycle;Signal;HPM_P1;HPM_P2
2021/03/17 00:01:39;;;;;;;7.83;4.80;;;3.60;99.90;;;;;;5038813;28;20463;-50
2021/03/17 00:04:07;;;;;;;7.37;4.80;;;3.40;99.90;;;;;;5053354;28;20952;-50
2021/03/17 00:06:33;;;;;;;7.70;4.70;;;3.40;99.90;;;;;;5053374;28;20482;-50
2021/03/17 00:09:00;;;;;;;7.90;5.00;;;3.30;99.90;;;;;;5051251;28;20487;-51
2021/03/17 00:11:26;;;;;;;6.73;5.10;;;3.40;99.90;;;;;;5053672;28;20448;-50
2021/03/17 00:13:53;;;;;;;5.87;4.43;;;3.30;99.90;;;;;;5052744;28;20452;-51
2021/03/17 00:16:19;;;;;;;9.37;5.10;;;3.50;99.90;;;;;;5050728;28;20463;-50
2021/03/17 00:18:46;;;;;;;7.77;5.00;;;3.40;99.90;;;;;;5050106;28;20447;-50
2021/03/17 00:21:13;;;;;;;5.97;4.77;;;3.30;99.90;;;;;;5033467;28;20452;-50
2021/03/17 00:23:40;;;;;;;7.40;4.60;;;3.60;99.90;;;;;;5041917;28;20447;-50
2021/03/17 00:26:06;;;;;;;6.70;5.07;;;3.40;99.90;;;;;;5052644;28;21077;-50
2021/03/17 00:28:32;;;;;;;8.10;5.03;;;3.40;99.90;;;;;;5053029;28;20451;-51
2021/03/17 00:31:00;;;;;;;8.00;5.50;;;3.40;99.90;;;;;;5052313;28;20505;-50
2021/03/17 00:33:26;;;;;;;6.73;4.50;;;3.20;99.90;;;;;;5052970;28;20999;-50
2021/03/17 00:35:53;;;;;;;9.10;5.20;;;3.20;99.90;;;;;;5053071;28;20795;-50
2021/03/17 00:38:20;;;;;;;8.70;5.50;;;3.00;99.90;;;;;;5053029;28;20517;-50
2021/03/17 00:40:47;;;;;;;7.73;5.50;;;3.00;99.90;;;;;;5052346;28;20483;-50
2021/03/17 00:43:13;;;;;;;7.80;5.13;;;3.10;99.90;;;;;;5052718;28;20448;-51
2021/03/17 00:45:40;;;;;;;9.37;5.67;;;2.90;99.90;;;;;;5052500;28;20549;-50
2021/03/17 00:48:07;;;;;;;10.10;6.57;;;2.90;99.90;;;;;;5053065;28;20448;-50
2021/03/17 00:50:34;;;;;;;10.00;5.93;;;2.70;99.90;;;;;;5052345;28;21212;-51
2021/03/17 00:53:00;;;;;;;12.03;7.20;;;2.60;99.90;;;;;;5044135;28;20459;-50
2021/03/17 00:55:28;;;;;;;12.20;6.83;;;2.70;99.90;;;;;;5037525;28;20447;-50
2021/03/17 00:57:54;;;;;;;11.43;6.83;;;2.70;99.90;;;;;;5048579;28;20445;-50
2021/03/17 01:00:21;;;;;;;13.60;9.50;;;2.70;99.90;;;;;;5052664;28;20438;-50
2021/03/17 01:02:49;;;;;;;15.23;8.27;;;2.80;99.90;;;;;;5053725;28;20622;-50
2021/03/17 01:05:15;;;;;;;11.70;7.53;;;2.80;99.90;;;;;;5051037;28;20479;-51
2021/03/17 01:07:43;;;;;;;10.27;6.57;;;2.80;99.90;;;;;;5051577;28;20975;-51
2021/03/17 01:10:12;;;;;;;13.20;7.60;;;2.90;99.90;;;;;;5035906;28;20533;-51
2021/03/17 01:12:41;;;;;;;13.57;7.90;;;2.90;99.90;;;;;;5051842;28;21004;-50
2021/03/17 01:15:11;;;;;;;15.60;8.70;;;2.90;99.90;;;;;;5050710;28;20540;-50
2021/03/17 01:17:37;;;;;;;14.50;8.40;;;2.80;99.90;;;;;;5032028;28;20535;-50
2021/03/17 01:20:05;;;;;;;15.27;7.80;;;2.80;99.90;;;;;;5032186;28;20475;-50
2021/03/17 01:22:32;;;;;;;16.90;8.93;;;2.90;99.90;;;;;;5032153;28;20509;-49
2021/03/17 01:24:58;;;;;;;13.60;8.00;;;2.80;99.90;;;;;;5032726;28;20448;-50
2021/03/17 01:27:25;;;;;;;14.17;7.80;;;2.90;99.90;;;;;;5047425;28;20519;-50
2021/03/17 01:29:52;;;;;;;15.87;9.50;;;3.00;99.90;;;;;;5032064;28;20475;-49
2021/03/17 01:32:19;;;;;;;16.47;9.30;;;2.90;99.90;;;;;;5032052;28;20461;-50
2021/03/17 01:34:45;;;;;;;17.23;9.10;;;3.10;99.90;;;;;;5031503;28;20799;-50
2021/03/17 01:37:12;;;;;;;14.77;8.67;;;3.30;99.90;;;;;;5049507;28;20501;-50
2021/03/17 01:39:39;;;;;;;17.10;9.27;;;3.30;99.90;;;;;;5051381;28;21027;-50
2021/03/17 01:42:06;;;;;;;17.83;8.83;;;3.20;99.90;;;;;;5051506;28;20451;-51
2021/03/17 01:44:35;;;;;;;18.30;10.17;;;3.20;99.90;;;;;;5050096;28;20459;-51
2021/03/17 01:47:02;;;;;;;17.20;9.00;;;3.00;99.90;;;;;;5035055;28;20480;-50
2021/03/17 01:49:31;;;;;;;17.13;9.40;;;3.00;99.90;;;;;;5031706;28;20794;-49
2021/03/17 01:51:58;;;;;;;16.87;9.33;;;2.90;99.90;;;;;;5031828;28;20449;-50
2021/03/17 01:54:24;;;;;;;17.57;9.50;;;2.80;99.90;;;;;;5031617;28;20444;-50
2021/03/17 01:56:51;;;;;;;18.40;10.63;;;2.80;99.90;;;;;;5045448;28;20451;-50
2021/03/17 01:59:20;;;;;;;13.17;8.73;;;2.80;99.90;;;;;;5051379;28;20482;-51
2021/03/17 02:01:46;;;;;;;18.10;10.03;;;2.80;99.90;;;;;;5051410;28;20475;-50
2021/03/17 02:04:13;;;;;;;16.73;8.83;;;2.80;99.90;;;;;;5051312;28;20455;-50
2021/03/17 02:06:40;;;;;;;16.50;9.53;;;2.80;99.90;;;;;;5049414;28;20885;-50
2021/03/17 02:09:07;;;;;;;19.17;9.83;;;2.90;99.90;;;;;;5050993;28;20471;-50
2021/03/17 02:11:41;;;;;;;14.37;8.90;;;2.80;99.90;;;;;;5051296;28;20440;-50
2021/03/17 02:14:20;;;;;;;15.97;9.77;;;2.80;99.90;;;;;;5051045;28;20457;-50
2021/03/17 02:16:54;;;;;;;17.30;9.70;;;2.80;99.90;;;;;;5037102;28;20528;-51
2021/03/17 02:20:14;;;;;;;17.60;9.80;;;2.70;99.90;;;;;;5030466;28;20472;-50
2021/03/17 02:22:48;;;;;;;15.43;8.87;;;2.70;99.90;;;;;;5031143;28;20451;-50
2021/03/17 02:25:43;;;;;;;19.07;9.03;;;2.90;99.90;;;;;;5049800;28;20450;-49
2021/03/17 02:28:23;;;;;;;16.10;9.10;;;2.90;99.90;;;;;;5031436;28;20439;-50
2021/03/17 02:31:17;;;;;;;18.27;9.00;;;2.80;99.90;;;;;;5036768;28;20470;-51
2021/03/17 02:33:57;;;;;;;15.20;9.20;;;2.90;99.90;;;;;;5050495;28;20439;-51
2021/03/17 02:36:31;;;;;;;14.73;8.47;;;3.00;99.90;;;;;;5050501;28;20525;-50
2021/03/17 02:39:05;;;;;;;16.23;9.27;;;3.00;99.90;;;;;;5050816;28;20471;-50
2021/03/17 02:41:37;;;;;;;17.63;9.63;;;2.80;99.90;;;;;;5038735;28;20456;-50
2021/03/17 02:44:10;;;;;;;17.13;9.70;;;2.60;99.90;;;;;;5031832;28;21042;-50
2021/03/17 02:46:40;;;;;;;18.63;10.10;;;2.60;99.90;;;;;;5030368;28;20476;-50
2021/03/17 02:49:11;;;;;;;17.20;9.00;;;2.80;99.90;;;;;;5030443;28;20513;-50
2021/03/17 02:51:42;;;;;;;14.70;8.30;;;2.90;99.90;;;;;;5042984;28;20534;-50
2021/03/17 02:54:12;;;;;;;18.13;10.27;;;2.90;99.90;;;;;;5050700;28;20462;-50
2021/03/17 02:56:43;;;;;;;14.93;8.63;;;3.00;99.90;;;;;;5050409;28;20504;-50
2021/03/17 02:59:10;;;;;;;14.13;7.87;;;3.00;99.90;;;;;;5049201;28;20473;-50
2021/03/17 03:01:39;;;;;;;14.37;9.00;;;3.10;99.90;;;;;;5049555;28;20451;-50
2021/03/17 03:04:08;;;;;;;12.33;7.97;;;3.10;99.90;;;;;;5050612;28;20447;-50
2021/03/17 03:06:36;;;;;;;11.97;7.73;;;3.10;99.90;;;;;;5050250;28;20502;-51
2021/03/17 03:09:03;;;;;;;13.40;7.73;;;3.10;99.90;;;;;;5050368;28;20460;-50
2021/03/17 03:11:30;;;;;;;12.43;7.53;;;2.80;99.90;;;;;;5039168;28;20457;-49
2021/03/17 03:13:57;;;;;;;13.10;8.33;;;2.90;99.90;;;;;;5030415;28;20454;-50
2021/03/17 03:16:25;;;;;;;16.30;8.70;;;2.70;99.90;;;;;;5030463;28;20441;-50
2021/03/17 03:18:53;;;;;;;17.20;10.60;;;2.80;99.90;;;;;;5030506;28;20864;-50
2021/03/17 03:21:24;;;;;;;14.70;9.90;;;2.90;99.90;;;;;;5041021;28;20452;-50
2021/03/17 03:23:52;;;;;;;16.67;10.00;;;3.00;99.90;;;;;;5050308;28;20458;-50
2021/03/17 03:26:20;;;;;;;14.37;9.00;;;3.10;99.90;;;;;;5050185;28;20476;-51
2021/03/17 03:28:48;;;;;;;17.60;10.17;;;3.00;99.90;;;;;;5050657;28;20458;-50
2021/03/17 03:31:16;;;;;;;16.40;10.00;;;2.90;99.90;;;;;;5035937;28;20459;-50
2021/03/17 03:33:43;;;;;;;18.47;9.97;;;2.90;99.90;;;;;;5034221;28;20459;-50
2021/03/17 03:36:10;;;;;;;19.93;10.73;;;2.90;99.90;;;;;;5033841;28;20459;-51
2021/03/17 03:38:37;;;;;;;19.43;10.03;;;2.80;99.90;;;;;;5033787;28;21003;-50
2021/03/17 03:41:05;;;;;;;20.07;9.77;;;2.80;99.90;;;;;;5047101;28;20460;-50
2021/03/17 03:43:31;;;;;;;14.50;8.70;;;2.80;99.90;;;;;;5053828;28;20452;-50
2021/03/17 03:45:58;;;;;;;14.43;8.27;;;2.90;99.90;;;;;;5053680;28;20482;-50
2021/03/17 03:48:25;;;;;;;14.97;8.73;;;2.80;99.90;;;;;;5053761;28;20838;-49
2021/03/17 03:50:53;;;;;;;13.53;8.40;;;2.80;99.90;;;;;;5053637;28;20846;-50
2021/03/17 03:53:47;;;;;;;17.03;9.07;;;2.90;99.90;;;;;;5034387;28;20448;-50
2021/03/17 03:56:18;;;;;;;18.20;10.10;;;2.70;99.90;;;;;;5031882;28;20961;-49
2021/03/17 03:58:47;;;;;;;15.37;9.40;;;2.70;99.90;;;;;;5037621;28;20534;-50
2021/03/17 04:01:21;;;;;;;15.73;9.00;;;2.80;99.90;;;;;;5051672;28;20448;-50
2021/03/17 04:03:52;;;;;;;13.43;8.20;;;2.80;99.90;;;;;;5053471;28;20802;-50
2021/03/17 04:06:19;;;;;;;13.13;8.20;;;2.80;99.90;;;;;;5043036;28;20491;-49
2021/03/17 04:08:48;;;;;;;16.00;9.13;;;2.90;99.90;;;;;;5033575;28;20448;-50
2021/03/17 04:11:17;;;;;;;13.50;8.23;;;2.90;99.90;;;;;;5033511;28;20657;-50
2021/03/17 04:13:46;;;;;;;16.33;8.80;;;2.90;99.90;;;;;;5033467;28;20742;-49
2021/03/17 04:16:13;;;;;;;15.20;9.40;;;2.90;99.90;;;;;;5033135;28;20479;-50
2021/03/17 04:18:44;;;;;;;14.97;8.70;;;2.90;99.90;;;;;;5033675;28;20502;-49
2021/03/17 04:21:17;;;;;;;15.80;9.07;;;2.90;99.90;;;;;;5034536;28;20449;-49
2021/03/17 04:23:46;;;;;;;18.10;9.67;;;2.90;99.90;;;;;;5040574;28;20980;-50
2021/03/17 04:26:14;;;;;;;17.87;9.50;;;2.90;99.90;;;;;;5032976;28;20476;-50
2021/03/17 04:28:43;;;;;;;15.67;9.00;;;2.70;99.90;;;;;;5033034;28;20461;-50
2021/03/17 04:31:11;;;;;;;15.37;9.60;;;2.70;99.90;;;;;;5032968;28;20904;-50
2021/03/17 04:33:38;;;;;;;16.87;9.40;;;2.80;99.90;;;;;;5033110;28;20444;-50
2021/03/17 04:36:07;;;;;;;14.73;8.27;;;2.90;99.90;;;;;;5032832;28;20445;-49
2021/03/17 04:38:35;;;;;;;15.07;8.80;;;2.80;99.90;;;;;;5035118;28;20687;-50
2021/03/17 04:41:02;;;;;;;14.50;7.80;;;2.90;99.90;;;;;;5074681;22;20495;-47
2021/03/17 04:43:30;;;;;;;14.73;8.60;;;2.80;99.90;;;;;;5052691;28;20451;-47
2021/03/17 04:46:00;;;;;;;12.57;6.97;;;2.90;99.90;;;;;;5052624;28;20479;-47
2021/03/17 04:48:27;;;;;;;13.20;7.63;;;2.90;99.90;;;;;;5052855;28;20456;-48
2021/03/17 04:50:55;;;;;;;12.57;7.37;;;2.90;99.90;;;;;;5052937;28;20941;-47
2021/03/17 04:53:21;;;;;;;16.53;8.90;;;2.90;99.90;;;;;;5045742;28;20470;-47
2021/03/17 04:55:48;;;;;;;13.30;7.70;;;2.80;99.90;;;;;;5033005;28;20507;-46
2021/03/17 04:58:18;;;;;;;14.83;9.00;;;2.80;99.90;;;;;;5032885;28;20449;-47
2021/03/17 05:00:48;;;;;;;18.03;9.20;;;2.80;99.90;;;;;;5031272;28;20991;-47
2021/03/17 05:03:17;;;;;;;16.87;8.17;;;2.60;99.90;;;;;;5028441;28;20877;-47
2021/03/17 05:05:48;;;;;;;16.53;8.53;;;2.70;99.90;;;;;;5031339;28;20452;-47
2021/03/17 05:08:17;;;;;;;17.50;9.23;;;2.80;99.90;;;;;;5031890;28;20453;-47
2021/03/17 05:10:46;;;;;;;17.43;8.53;;;2.90;99.90;;;;;;5025605;28;20472;-47
2021/03/17 05:13:14;;;;;;;16.60;7.80;;;2.90;99.90;;;;;;5012807;28;20866;-47
2021/03/17 05:15:41;;;;;;;14.60;8.20;;;3.00;99.90;;;;;;5012298;28;20525;-47
2021/03/17 05:18:10;;;;;;;15.20;8.80;;;3.00;99.90;;;;;;5012664;28;20449;-47
2021/03/17 05:20:37;;;;;;;14.37;8.47;;;3.10;99.90;;;;;;5012240;28;20465;-47
2021/03/17 05:23:04;;;;;;;18.70;9.87;;;3.10;99.90;;;;;;5019715;28;20453;-47
2021/03/17 05:25:32;;;;;;;16.97;9.70;;;3.10;99.90;;;;;;5031729;28;20543;-47
2021/03/17 05:28:04;;;;;;;20.90;11.13;;;3.10;99.90;;;;;;5032089;28;20558;-47
2021/03/17 05:30:32;;;;;;;20.87;13.20;;;3.10;99.90;;;;;;5027375;28;20476;-47
2021/03/17 05:33:01;;;;;;;19.23;12.27;;;3.00;99.90;;;;;;5031825;28;20452;-47
2021/03/17 05:35:29;;;;;;;20.50;11.20;;;3.10;99.90;;;;;;5030811;28;20450;-47
2021/03/17 05:37:56;;;;;;;20.93;12.20;;;3.00;99.90;;;;;;5032121;28;20930;-47
2021/03/17 05:40:22;;;;;;;20.33;10.97;;;3.00;99.90;;;;;;5030729;28;20483;-47
2021/03/17 05:42:50;;;;;;;20.73;10.83;;;2.90;99.90;;;;;;5031643;28;20456;-47
2021/03/17 05:45:18;;;;;;;21.60;10.70;;;2.70;99.90;;;;;;5029472;28;20445;-47
2021/03/17 05:47:45;;;;;;;20.63;11.00;;;2.50;99.90;;;;;;5029942;28;20486;-47
2021/03/17 05:50:14;;;;;;;18.17;11.80;;;2.50;99.90;;;;;;5028829;28;20479;-46
2021/03/17 05:52:43;;;;;;;20.80;11.70;;;2.40;99.90;;;;;;5029030;28;20465;-47
2021/03/17 05:55:11;;;;;;;19.60;11.20;;;2.40;99.90;;;;;;5029154;28;20449;-47
2021/03/17 05:57:41;;;;;;;22.87;11.17;;;2.30;99.90;;;;;;5028266;28;20964;-47
2021/03/17 06:00:11;;;;;;;20.60;11.83;;;2.60;99.90;;;;;;5027703;28;20547;-47
2021/03/17 06:02:39;;;;;;;20.83;11.00;;;2.80;99.90;;;;;;5027275;28;20456;-46
2021/03/17 06:05:08;;;;;;;21.03;12.07;;;2.70;99.90;;;;;;5027200;28;20449;-47
2021/03/17 06:07:43;;;;;;;20.37;11.13;;;2.60;99.90;;;;;;5028904;28;20484;-46
2021/03/17 06:10:11;;;;;;;18.30;10.30;;;2.50;99.90;;;;;;5029562;28;20477;-49
2021/03/17 06:12:39;;;;;;;20.40;10.17;;;2.60;99.90;;;;;;5031042;28;20444;-47
2021/03/17 06:15:07;;;;;;;16.40;9.10;;;2.60;99.90;;;;;;5030603;28;20543;-47
2021/03/17 06:17:36;;;;;;;18.37;10.27;;;2.50;99.90;;;;;;5021504;28;20535;-46
2021/03/17 06:20:07;;;;;;;16.20;9.20;;;2.50;99.90;;;;;;5030223;28;20503;-47
2021/03/17 06:22:35;;;;;;;16.70;9.70;;;2.60;99.90;;;;;;5011452;28;20437;-47
2021/03/17 06:25:05;;;;;;;19.87;10.20;;;2.60;99.90;;;;;;5011048;28;20552;-47
2021/03/17 06:27:34;;;;;;;19.87;10.43;;;2.40;99.90;;;;;;5016475;28;20477;-47
2021/03/17 06:30:03;;;;;;;17.57;10.23;;;2.30;99.90;;;;;;5011416;28;20560;-47
2021/03/17 06:32:31;;;;;;;15.63;9.63;;;2.50;99.90;;;;;;5023573;28;20902;-47
2021/03/17 06:34:58;;;;;;;21.10;11.20;;;2.60;99.90;;;;;;5030489;28;20449;-47
2021/03/17 06:37:35;;;;;;;17.80;9.90;;;2.50;99.90;;;;;;5030040;28;20444;-46
2021/03/17 06:40:18;;;;;;;18.13;10.20;;;2.50;99.90;;;;;;5030277;28;20486;-47
2021/03/17 06:42:45;;;;;;;18.60;9.67;;;2.50;99.90;;;;;;5030340;28;20874;-46
2021/03/17 06:45:13;;;;;;;16.10;9.10;;;2.60;99.90;;;;;;5029659;28;20862;-46
2021/03/17 06:47:39;;;;;;;15.13;8.98;;;2.60;99.90;;;;;;5030371;28;20487;-46
2021/03/17 06:50:12;;;;;;;14.30;8.60;;;2.70;99.90;;;;;;5030317;28;20599;-47
2021/03/17 06:52:39;;;;;;;13.20;8.23;;;2.70;99.90;;;;;;5026551;28;20956;-47
2021/03/17 06:55:19;;;;;;;16.80;11.40;;;2.60;99.90;;;;;;5027197;28;20926;-47
2021/03/17 06:57:46;;;;;;;17.90;10.87;;;2.70;99.90;;;;;;5028499;28;20201;-47
2021/03/17 07:00:31;;;;;;;14.80;8.20;;;2.60;99.90;;;;;;5029224;28;20530;-46
2021/03/17 07:03:01;;;;;;;14.87;8.30;;;2.50;99.90;;;;;;5010148;28;20995;-47
2021/03/17 07:05:43;;;;;;;15.27;8.40;;;2.60;99.90;;;;;;5031494;28;20452;-48
2021/03/17 07:08:11;;;;;;;14.90;8.30;;;2.60;99.90;;;;;;5032450;28;20495;-47
2021/03/17 07:10:40;;;;;;;14.50;8.20;;;2.80;99.90;;;;;;5025234;28;20476;-47
2021/03/17 07:13:08;;;;;;;16.83;8.90;;;2.60;99.90;;;;;;5034550;28;20452;-47
2021/03/17 07:15:37;;;;;;;14.60;8.83;;;2.80;99.90;;;;;;5033673;28;20455;-47
2021/03/17 07:18:19;;;;;;;15.20;8.37;;;2.80;99.90;;;;;;5032979;28;20448;-47
2021/03/17 07:20:48;;;;;;;18.60;9.63;;;2.60;99.90;;;;;;5032462;28;20480;-47
2021/03/17 07:23:33;;;;;;;16.87;9.60;;;2.80;99.90;;;;;;5033922;28;20448;-47
2021/03/17 07:26:16;;;;;;;17.10;8.77;;;2.90;99.90;;;;;;5033824;28;20431;-47
2021/03/17 07:29:07;;;;;;;14.13;8.10;;;2.90;99.90;;;;;;5033919;28;20826;-46
2021/03/17 07:31:36;;;;;;;15.90;8.47;;;3.00;99.90;;;;;;5034174;28;20455;-47
2021/03/17 07:34:26;;;;;;;13.03;8.17;;;3.00;99.90;;;;;;5033419;28;20455;-46
2021/03/17 07:36:56;;;;;;;16.73;8.80;;;3.10;99.90;;;;;;5023253;28;20449;-46
2021/03/17 07:39:25;;;;;;;17.73;9.23;;;3.00;99.90;;;;;;5032130;28;20997;-46
2021/03/17 07:41:55;;;;;;;17.83;9.77;;;3.00;99.90;;;;;;5033701;28;20933;-47
2021/03/17 07:44:22;;;;;;;14.37;8.53;;;2.90;99.90;;;;;;5032652;28;21013;-47
2021/03/17 07:46:51;;;;;;;16.47;9.17;;;3.00;99.90;;;;;;5027349;28;20853;-45
2021/03/17 07:49:18;;;;;;;17.13;9.37;;;3.20;99.90;;;;;;5033455;28;20477;-46
2021/03/17 07:51:50;;;;;;;15.33;9.43;;;3.30;99.90;;;;;;5033454;28;20455;-46
2021/03/17 07:54:33;;;;;;;14.50;8.60;;;3.20;99.90;;;;;;5033119;28;20864;-47
2021/03/17 07:57:03;;;;;;;16.80;8.87;;;3.20;99.90;;;;;;5031637;28;20531;-46
2021/03/17 07:59:29;;;;;;;14.13;8.00;;;3.20;99.90;;;;;;5032382;28;20476;-46
2021/03/17 08:01:57;;;;;;;15.10;8.30;;;3.30;99.90;;;;;;5030982;28;20465;-47
2021/03/17 08:04:27;;;;;;;16.33;8.80;;;3.50;99.90;;;;;;5033196;28;20875;-47
2021/03/17 08:06:56;;;;;;;14.57;8.50;;;3.60;99.90;;;;;;5032536;28;20483;-46
2021/03/17 08:09:23;;;;;;;13.40;8.40;;;3.80;99.90;;;;;;5032639;28;21051;-46
2021/03/17 08:11:50;;;;;;;15.47;8.33;;;4.10;99.90;;;;;;5033081;28;20830;-46
2021/03/17 08:14:19;;;;;;;15.57;8.50;;;3.90;99.90;;;;;;5032689;28;20452;-47
2021/03/17 08:16:46;;;;;;;15.80;8.17;;;3.90;99.90;;;;;;5031288;28;20754;-47
2021/03/17 08:19:21;;;;;;;15.60;8.50;;;3.80;99.90;;;;;;5032428;28;20459;-47
2021/03/17 08:21:50;;;;;;;17.97;9.40;;;3.70;99.90;;;;;;5032438;28;20466;-47
2021/03/17 08:24:39;;;;;;;16.87;9.60;;;3.50;99.90;;;;;;5021180;28;20457;-46
2021/03/17 08:27:20;;;;;;;15.33;8.90;;;3.60;99.90;;;;;;5032468;28;20484;-47
2021/03/17 08:29:50;;;;;;;15.70;8.20;;;3.70;99.90;;;;;;5032561;28;20478;-46
2021/03/17 08:32:18;;;;;;;13.63;8.47;;;3.70;99.90;;;;;;5032528;28;20467;-47
2021/03/17 08:34:55;;;;;;;13.93;8.23;;;3.90;99.90;;;;;;5032751;28;20934;-47
2021/03/17 08:37:50;;;;;;;13.70;8.37;;;4.00;99.90;;;;;;5032435;28;20502;-47
2021/03/17 08:40:55;;;;;;;12.83;8.40;;;4.30;99.90;;;;;;5021898;28;20506;-47
2021/03/17 08:43:45;;;;;;;12.00;7.10;;;4.10;99.90;;;;;;4995999;28;20540;-47
2021/03/17 08:46:15;;;;;;;13.20;7.53;;;4.30;99.90;;;;;;5023127;28;20459;-46
2021/03/17 08:48:55;;;;;;;14.80;8.70;;;4.30;99.90;;;;;;5032171;28;20468;-47
2021/03/17 08:52:04;;;;;;;17.43;9.40;;;4.20;99.90;;;;;;5031296;28;20463;-47
2021/03/17 08:55:07;;;;;;;14.53;8.67;;;4.10;99.90;;;;;;5031822;28;21172;-47
2021/03/17 08:58:01;;;;;;;18.73;9.80;;;4.30;99.90;;;;;;5031029;28;20456;-46
2021/03/17 09:00:55;;;;;;;16.53;9.23;;;4.70;99.90;;;;;;5031580;28;20496;-47
2021/03/17 09:03:45;;;;;;;19.03;12.70;;;4.80;99.90;;;;;;5029009;28;20873;-47
2021/03/17 09:06:28;;;;;;;19.77;12.50;;;5.10;99.90;;;;;;5029273;28;20460;-47
2021/03/17 09:09:04;;;;;;;15.73;9.00;;;4.90;99.90;;;;;;5031166;28;20463;-47
2021/03/17 09:11:49;;;;;;;11.67;7.37;;;5.20;99.90;;;;;;5016160;28;20449;-47
2021/03/17 09:14:24;;;;;;;14.97;9.50;;;5.20;99.90;;;;;;5011877;28;20488;-47
2021/03/17 09:17:13;;;;;;;16.73;9.67;;;5.50;99.90;;;;;;5027558;28;20444;-46
2021/03/17 09:20:01;;;;;;;15.80;9.93;;;5.50;99.90;;;;;;5031726;28;20473;-47
2021/03/17 09:22:42;;;;;;;13.60;8.77;;;5.30;99.90;;;;;;5031642;28;20449;-47
2021/03/17 09:25:23;;;;;;;13.80;7.87;;;5.20;99.90;;;;;;5019517;28;20452;-47
2021/03/17 09:27:53;;;;;;;14.17;8.60;;;4.80;99.90;;;;;;5031396;28;21009;-47
2021/03/17 09:30:22;;;;;;;14.97;9.17;;;4.50;99.90;;;;;;5031405;28;20526;-47
2021/03/17 09:32:49;;;;;;;14.63;9.37;;;4.50;99.90;;;;;;5031280;28;20471;-46
2021/03/17 09:35:18;;;;;;;15.90;9.87;;;4.50;99.90;;;;;;5031347;28;20444;-47
2021/03/17 09:37:45;;;;;;;15.90;8.83;;;4.60;99.90;;;;;;5031078;28;20480;-47
2021/03/17 09:40:16;;;;;;;16.90;10.23;;;4.60;99.90;;;;;;5030637;28;20538;-47
2021/03/17 09:42:43;;;;;;;15.00;9.80;;;4.80;99.90;;;;;;5031314;28;20892;-47
2021/03/17 09:45:11;;;;;;;15.73;10.27;;;5.10;99.90;;;;;;5030774;28;20466;-47
2021/03/17 09:47:37;;;;;;;13.93;8.80;;;5.70;99.90;;;;;;5030557;28;20929;-47
2021/03/17 09:50:14;;;;;;;28.50;16.67;;;6.00;99.90;;;;;;5031278;28;20874;-47
2021/03/17 09:52:44;;;;;;;17.37;11.30;;;6.30;99.90;;;;;;5031273;28;20506;-46
2021/03/17 09:55:30;;;;;;;10.73;7.50;;;7.10;99.90;;;;;;5031558;28;20474;-46
2021/03/17 09:58:01;;;;;;;14.40;9.60;;;7.60;99.90;;;;;;5020270;28;20448;-47
2021/03/17 10:00:28;;;;;;;16.30;9.70;;;7.90;99.90;;;;;;5030456;28;20846;-47
2021/03/17 10:02:58;;;;;;;19.40;8.93;;;7.80;99.90;;;;;;5029639;28;20449;-46
2021/03/17 10:05:25;;;;;;;14.53;9.50;;;7.50;99.90;;;;;;5029421;28;20451;-47
2021/03/17 10:07:52;;;;;;;13.03;8.17;;;7.70;99.90;;;;;;5030686;28;20480;-47
2021/03/17 10:10:20;;;;;;;16.80;11.30;;;7.80;99.90;;;;;;5030439;28;20576;-46
2021/03/17 10:12:48;;;;;;;17.30;11.57;;;8.30;99.90;;;;;;5030880;28;20459;-47
2021/03/17 10:15:18;;;;;;;17.03;11.80;;;8.50;99.90;;;;;;5030864;28;20451;-47
2021/03/17 10:17:44;;;;;;;14.40;8.60;;;8.30;99.90;;;;;;5023242;28;20507;-47
2021/03/17 10:20:13;;;;;;;13.10;9.40;;;8.30;99.90;;;;;;5029397;28;20472;-47
2021/03/17 10:22:40;;;;;;;23.40;13.77;;;8.00;99.90;;;;;;5030411;28;20456;-47
2021/03/17 10:25:10;;;;;;;13.43;8.90;;;7.70;99.90;;;;;;5029855;28;20464;-47
2021/03/17 10:27:39;;;;;;;16.87;10.87;;;7.60;99.90;;;;;;5030818;28;20491;-46
2021/03/17 10:30:09;;;;;;;18.67;11.83;;;7.50;99.90;;;;;;5030764;28;20476;-46
2021/03/17 10:32:37;;;;;;;10.73;8.07;;;7.50;99.90;;;;;;5030536;28;20882;-47
2021/03/17 10:35:08;;;;;;;14.10;8.30;;;7.60;99.90;;;;;;5029981;28;20448;-47
2021/03/17 10:37:35;;;;;;;43.97;23.40;;;7.90;99.90;;;;;;5030107;28;20754;-47
2021/03/17 10:40:12;;;;;;;11.90;8.30;;;8.10;99.90;;;;;;5052563;22;20566;-49
2021/03/17 10:42:44;;;;;;;18.43;10.60;;;7.80;99.90;;;;;;5045343;28;20451;-51
2021/03/17 10:45:12;;;;;;;13.23;8.13;;;7.70;99.90;;;;;;5050262;28;20495;-50
2021/03/17 10:47:41;;;;;;;11.07;6.90;;;7.40;99.90;;;;;;5050382;28;20628;-50
2021/03/17 10:50:10;;;;;;;12.10;6.87;;;7.90;99.90;;;;;;5032539;28;20476;-51
2021/03/17 10:52:39;;;;;;;10.00;6.57;;;7.70;99.90;;;;;;5030653;28;20456;-50
2021/03/17 10:55:23;;;;;;;8.73;5.90;;;7.70;99.90;;;;;;5027048;28;20457;-51
2021/03/17 10:57:50;;;;;;;8.77;5.90;;;7.60;99.90;;;;;;5029116;28;21076;-50
2021/03/17 11:00:20;;;;;;;12.80;7.27;;;7.30;99.90;;;;;;5030106;28;20556;-51
2021/03/17 11:02:47;;;;;;;10.83;7.17;;;7.10;99.90;;;;;;5030430;28;20449;-49
2021/03/17 11:05:16;;;;;;;11.40;7.03;;;7.10;99.90;;;;;;5030224;28;20475;-50
2021/03/17 11:08:07;;;;;;;10.47;6.97;;;6.70;99.90;;;;;;5030308;28;20492;-50
2021/03/17 11:10:37;;;;;;;7.60;5.50;;;6.50;99.90;;;;;;5028285;28;21155;-51
2021/03/17 11:13:26;;;;;;;9.00;6.50;;;6.30;99.90;;;;;;5030474;28;20452;-51
2021/03/17 11:15:54;;;;;;;8.43;5.50;;;5.70;99.90;;;;;;5010462;28;20508;-50
2021/03/17 11:18:24;;;;;;;7.97;4.70;;;5.30;99.90;;;;;;5010589;28;20442;-50
2021/03/17 11:20:51;;;;;;;8.83;5.20;;;4.70;99.90;;;;;;5009922;28;20465;-50
2021/03/17 11:23:18;;;;;;;9.50;5.17;;;4.50;99.90;;;;;;5011419;28;20445;-50
2021/03/17 11:25:46;;;;;;;25.27;11.33;;;4.50;99.90;;;;;;5010383;28;20453;-50
2021/03/17 11:28:14;;;;;;;6.90;4.53;;;4.50;99.90;;;;;;5010958;28;20485;-51
2021/03/17 11:30:45;;;;;;;8.93;4.73;;;4.70;99.90;;;;;;5011087;28;20473;-50
2021/03/17 11:33:13;;;;;;;11.73;4.93;;;4.80;99.90;;;;;;5030484;28;20940;-51
2021/03/17 11:35:40;;;;;;;7.87;4.80;;;4.60;99.90;;;;;;5027858;28;20448;-50
2021/03/17 11:38:06;;;;;;;10.23;6.13;;;4.60;99.90;;;;;;5016111;28;20503;-50
2021/03/17 11:40:33;;;;;;;23.63;13.23;;;4.80;99.90;;;;;;5029703;28;20539;-49
2021/03/17 11:43:12;;;;;;;10.60;5.43;;;4.80;99.90;;;;;;5030120;28;20495;-50
2021/03/17 11:45:40;;;;;;;6.97;4.57;;;3.90;99.90;;;;;;5029662;28;20448;-50
2021/03/17 11:48:07;;;;;;;9.77;6.03;;;3.40;99.90;;;;;;5030115;28;20484;-49
2021/03/17 11:50:34;;;;;;;5.33;3.30;;;3.20;99.90;;;;;;5030089;28;20479;-49
2021/03/17 11:53:01;;;;;;;4.40;3.30;;;3.20;99.90;;;;;;5021433;28;20464;-50
2021/03/17 11:55:28;;;;;;;4.13;2.73;;;3.10;99.90;;;;;;5016280;28;20969;-49
2021/03/17 11:57:54;;;;;;;3.20;2.23;;;2.80;99.90;;;;;;5021846;28;20487;-51
2021/03/17 12:00:23;;;;;;;3.50;2.07;;;2.90;99.90;;;;;;5018938;28;20476;-50
2021/03/17 12:02:50;;;;;;;3.17;2.40;;;2.60;99.90;;;;;;5013391;28;20456;-49
2021/03/17 12:05:17;;;;;;;4.50;2.73;;;2.50;99.90;;;;;;5013181;28;20969;-50
2021/03/17 12:07:44;;;;;;;6.73;2.57;;;2.30;99.90;;;;;;5013661;28;20997;-50
2021/03/17 12:10:13;;;;;;;5.63;3.67;;;2.30;99.90;;;;;;5025605;28;20483;-51
2021/03/17 12:12:40;;;;;;;4.50;3.40;;;2.50;99.90;;;;;;5041130;28;20460;-50
2021/03/17 12:15:09;;;;;;;4.80;3.30;;;2.70;99.90;;;;;;5013149;28;20452;-52
2021/03/17 12:17:37;;;;;;;4.70;2.60;;;2.60;99.90;;;;;;5013181;28;20453;-51
2021/03/17 12:20:06;;;;;;;5.93;3.10;;;2.80;99.90;;;;;;5013064;28;20465;-51
2021/03/17 12:22:33;;;;;;;6.03;3.03;;;2.70;99.90;;;;;;5013353;28;20449;-51
2021/03/17 12:24:59;;;;;;;5.93;3.10;;;2.60;99.90;;;;;;5014070;28;20502;-51
2021/03/17 12:27:26;;;;;;;5.80;4.37;;;2.50;99.90;;;;;;5013040;28;20491;-51
2021/03/17 12:29:52;;;;;;;7.00;4.50;;;2.60;99.90;;;;;;5012875;28;20469;-50
2021/03/17 12:32:19;;;;;;;9.60;4.37;;;2.90;99.90;;;;;;5013200;28;20527;-50
2021/03/17 12:34:46;;;;;;;6.70;3.50;;;3.10;99.90;;;;;;5023750;28;20452;-50
2021/03/17 12:37:13;;;;;;;4.73;3.40;;;3.20;99.90;;;;;;5032751;28;20490;-50
2021/03/17 12:39:40;;;;;;;5.13;3.33;;;3.10;99.90;;;;;;5032534;28;20471;-50
2021/03/17 12:42:07;;;;;;;5.17;3.00;;;3.10;99.90;;;;;;5032618;28;20502;-50
2021/03/17 12:44:34;;;;;;;4.50;2.87;;;3.30;99.90;;;;;;5032349;28;21004;-50
2021/03/17 12:47:01;;;;;;;3.50;2.43;;;3.40;99.90;;;;;;5032439;28;20487;-51
2021/03/17 12:49:28;;;;;;;4.40;2.70;;;3.30;99.90;;;;;;5031607;28;20452;-51
2021/03/17 12:51:55;;;;;;;4.73;2.73;;;3.30;99.90;;;;;;5032539;28;20459;-51
2021/03/17 12:54:22;;;;;;;3.70;3.10;;;3.60;99.90;;;;;;5019958;28;20451;-50
2021/03/17 12:56:49;;;;;;;5.13;2.67;;;3.80;99.90;;;;;;5013570;28;20199;-51
2021/03/17 12:59:15;;;;;;;3.10;2.40;;;4.20;99.90;;;;;;5012925;28;20450;-51
2021/03/17 13:01:42;;;;;;;2.53;2.00;;;4.30;99.90;;;;;;5012974;28;20477;-51
2021/03/17 13:04:09;;;;;;;2.27;1.93;;;4.50;99.90;;;;;;5012759;28;20850;-51
2021/03/17 13:06:36;;;;;;;2.77;2.30;;;4.60;99.90;;;;;;5026975;28;20479;-51